createdAt,value
2019-04-23T00:01:49.817Z,45.65
2019-04-23T00:04:24.117Z,45.64
2019-04-23T00:07:10.713Z,45.72
2019-04-23T00:09:35.509Z,45.64
2019-04-23T00:12:11.985Z,45.68
2019-04-23T00:14:47.129Z,45.50
2019-04-23T00:17:14.992Z,45.63
2019-04-23T00:19:47.260Z,45.54
2019-04-23T00:22:51.908Z,45.36
2019-04-23T00:25:45.574Z,45.55
2019-04-23T00:30:48.130Z,45.44
2019-04-23T00:33:23.920Z,45.17
2019-04-23T00:35:44.032Z,45.35
2019-04-23T00:38:27.939Z,45.29
2019-04-23T00:43:30.627Z,45.20
2019-04-23T00:45:59.391Z,44.82
2019-04-23T00:51:02.337Z,44.77
2019-04-23T00:53:38.636Z,44.73
2019-04-23T00:56:32.457Z,45.08
2019-04-23T01:01:31.948Z,45.00
2019-04-23T01:04:02.570Z,44.98
2019-04-23T01:06:29.061Z,44.94
2019-04-23T01:09:03.831Z,45.10
2019-04-23T01:11:39.314Z,45.21
2019-04-23T01:14:11.349Z,45.25
2019-04-23T01:16:42.488Z,45.09
2019-04-23T01:21:49.615Z,44.99
2019-04-23T01:25:07.243Z,44.96
2019-04-23T01:30:38.746Z,44.66
2019-04-23T01:33:11.006Z,44.93
2019-04-23T01:35:41.316Z,44.89
2019-04-23T01:38:21.547Z,44.80
2019-04-23T01:43:23.212Z,44.49
2019-04-23T01:45:54.537Z,44.51
2019-04-23T01:48:36.315Z,44.48
2019-04-23T01:51:19.027Z,44.50
2019-04-23T01:53:40.495Z,44.41
2019-04-23T01:56:11.133Z,44.37
2019-04-23T01:58:45.105Z,44.40
2019-04-23T02:01:19.178Z,44.33
2019-04-23T02:03:57.999Z,43.95
2019-04-23T02:06:30.005Z,44.27
2019-04-23T02:08:58.847Z,44.21
2019-04-23T02:11:34.172Z,44.41
2019-04-23T02:14:08.909Z,44.34
2019-04-23T02:16:56.282Z,44.27
2019-04-23T02:19:21.855Z,44.39
2019-04-23T02:22:13.263Z,44.33
2019-04-23T02:24:39.606Z,44.54
2019-04-23T02:27:05.254Z,44.53
2019-04-23T02:29:51.439Z,44.45
2019-04-23T02:32:16.776Z,44.51
2019-04-23T02:35:01.633Z,44.60
2019-04-23T02:37:34.720Z,44.59
2019-04-23T02:40:16.014Z,44.63
2019-04-23T02:45:07.526Z,44.76
2019-04-23T02:47:44.295Z,44.70
2019-04-23T02:50:33.598Z,44.79
2019-04-23T02:52:49.644Z,44.89
2019-04-23T02:55:27.174Z,45.12
2019-04-23T02:57:54.293Z,45.10
2019-04-23T03:00:27.666Z,45.08
2019-04-23T03:03:06.347Z,45.21
2019-04-23T03:05:36.096Z,45.03
2019-04-23T03:16:21.825Z,45.12
2019-04-23T03:22:00.128Z,45.23
2019-04-23T03:24:44.127Z,45.34
2019-04-23T03:29:57.940Z,45.30
2019-04-23T03:40:03.773Z,45.37
2019-04-23T03:42:38.719Z,45.54
2019-04-23T03:50:15.469Z,45.64
2019-04-23T03:52:44.386Z,45.53
2019-04-23T03:55:28.132Z,45.67
2019-04-23T03:57:52.640Z,45.59
2019-04-23T04:00:35.235Z,45.70
2019-04-23T04:03:12.251Z,45.51
2019-04-23T04:08:13.943Z,45.79
2019-04-23T04:11:02.504Z,45.57
2019-04-23T04:13:22.438Z,45.59
2019-04-23T04:15:55.344Z,45.51
2019-04-23T04:21:08.669Z,45.53
2019-04-23T04:23:33.054Z,45.33
2019-04-23T04:26:07.092Z,45.46
2019-04-23T04:31:16.351Z,45.47
2019-04-23T04:34:01.157Z,45.30
2019-04-23T04:38:54.495Z,45.37
2019-04-23T04:41:34.499Z,45.11
2019-04-23T04:46:45.129Z,45.32
2019-04-23T04:54:21.154Z,45.18
2019-04-23T04:59:56.275Z,45.02
2019-04-23T05:02:16.195Z,45.05
2019-04-23T05:07:26.030Z,44.95
2019-04-23T05:12:22.933Z,44.61
2019-04-23T05:14:56.940Z,44.54
2019-04-23T05:17:57.268Z,44.31
2019-04-23T05:20:37.345Z,44.49
2019-04-23T05:23:00.165Z,44.35
2019-04-23T05:25:21.999Z,44.24
2019-04-23T05:28:08.278Z,44.00
2019-04-23T05:36:04.982Z,43.65
2019-04-23T05:38:37.161Z,43.70
2019-04-23T05:43:19.233Z,43.45
2019-04-23T05:45:59.300Z,43.31
2019-04-23T05:48:23.519Z,43.20
2019-04-23T05:51:04.546Z,43.02
2019-04-23T05:56:09.086Z,42.63
2019-04-23T05:58:46.858Z,42.71
2019-04-23T06:04:26.049Z,42.42
2019-04-23T06:07:15.279Z,42.42
2019-04-23T06:11:59.745Z,42.27
2019-04-23T06:14:40.285Z,41.67
2019-04-23T06:17:03.706Z,41.86
2019-04-23T06:19:46.029Z,41.84
2019-04-23T06:22:27.408Z,41.73
2019-04-23T06:24:32.983Z,41.74
2019-04-23T06:27:13.589Z,41.61
2019-04-23T06:29:57.716Z,41.37
2019-04-23T06:32:31.420Z,41.44
2019-04-23T06:37:25.790Z,41.47
2019-04-23T06:42:32.518Z,41.63
2019-04-23T06:45:26.412Z,41.21
2019-04-23T06:47:37.583Z,41.10
2019-04-23T06:50:14.789Z,41.58
2019-04-23T06:52:48.524Z,41.17
2019-04-23T06:55:25.421Z,41.05
2019-04-23T06:57:58.602Z,41.15
2019-04-23T07:00:34.214Z,40.88
2019-04-23T07:03:07.611Z,41.18
2019-04-23T07:06:03.685Z,41.11
2019-04-23T07:08:32.498Z,41.10
2019-04-23T07:11:11.100Z,40.73
2019-04-23T07:13:47.168Z,41.01
2019-04-23T07:16:09.628Z,40.47
2019-04-23T07:18:41.125Z,40.87
2019-04-23T07:21:20.202Z,40.84
2019-04-23T07:31:50.058Z,40.20
2019-04-23T07:39:21.968Z,40.42
2019-04-23T07:42:24.722Z,40.21
2019-04-23T07:50:49.424Z,40.05
2019-04-23T07:56:09.520Z,39.75
2019-04-23T07:58:29.011Z,39.28
2019-04-23T08:01:01.020Z,39.05
2019-04-23T08:03:39.320Z,39.49
2019-04-23T08:06:05.857Z,39.33
2019-04-23T08:08:45.501Z,38.38
2019-04-23T08:14:08.544Z,38.34
2019-04-23T08:16:33.622Z,37.99
2019-04-23T08:18:59.031Z,38.14
2019-04-23T08:21:31.820Z,38.14
2019-04-23T08:24:50.557Z,37.94
2019-04-23T08:27:22.426Z,37.31
2019-04-23T08:29:55.462Z,36.89
2019-04-23T08:32:21.326Z,36.91
2019-04-23T08:37:54.319Z,36.57
2019-04-23T08:43:08.972Z,36.22
2019-04-23T08:45:44.475Z,35.89
2019-04-23T08:50:49.771Z,36.13
2019-04-23T08:55:58.331Z,35.72
2019-04-23T08:58:32.044Z,35.84
2019-04-23T09:03:56.373Z,35.04
2019-04-23T09:09:04.368Z,34.90
2019-04-23T09:11:35.160Z,35.32
2019-04-23T09:19:11.118Z,35.07
2019-04-23T09:21:59.242Z,34.70
2019-04-23T09:24:09.578Z,34.75
2019-04-23T09:26:41.470Z,34.25
2019-04-23T09:29:24.989Z,33.88
2019-04-23T09:32:22.290Z,34.01
2019-04-23T09:34:58.667Z,33.37
2019-04-23T09:40:55.614Z,32.72
2019-04-23T09:43:12.095Z,32.92
2019-04-23T09:46:15.060Z,32.25
2019-04-23T09:48:44.217Z,32.44
2019-04-23T09:51:20.975Z,32.47
2019-04-23T09:54:00.618Z,31.97
2019-04-23T09:56:27.239Z,31.64
2019-04-23T09:59:01.147Z,31.30
2019-04-23T10:03:50.537Z,31.45
2019-04-23T10:06:20.290Z,31.72
2019-04-23T10:08:50.052Z,31.69
2019-04-23T10:11:19.957Z,31.46
2019-04-23T10:13:52.774Z,31.03
2019-04-23T10:16:27.710Z,31.16
2019-04-23T10:19:00.675Z,30.67
2019-04-23T10:21:33.394Z,30.52
2019-04-23T10:24:05.548Z,30.71
2019-04-23T10:26:37.917Z,30.38
2019-04-23T10:29:14.185Z,30.66
2019-04-23T10:31:46.154Z,30.31
2019-04-23T10:34:18.970Z,30.26
2019-04-23T10:36:51.517Z,30.31
2019-04-23T10:39:29.509Z,30.67
2019-04-23T10:42:00.862Z,30.40
2019-04-23T10:44:50.814Z,29.87
2019-04-23T10:48:15.524Z,29.58
2019-04-23T10:50:46.208Z,29.19
2019-04-23T10:55:56.339Z,29.10
2019-04-23T10:58:31.469Z,28.94
2019-04-23T11:06:17.752Z,28.91
2019-04-23T11:08:52.840Z,29.35
2019-04-23T11:13:52.842Z,29.52
2019-04-23T11:16:45.815Z,30.15
2019-04-23T11:19:10.791Z,30.45
2019-04-23T11:21:34.138Z,31.23
2019-04-23T11:24:11.371Z,31.75
2019-04-23T11:29:19.267Z,31.84
2019-04-23T11:31:52.298Z,30.68
2019-04-23T11:38:02.677Z,30.03
2019-04-23T11:39:32.762Z,28.75
2019-04-23T11:42:14.505Z,28.17
2019-04-23T11:44:41.511Z,27.87
2019-04-23T11:47:32.597Z,27.72
2019-04-23T11:49:53.307Z,27.83
2019-04-23T11:52:42.784Z,28.06
2019-04-23T12:00:09.991Z,27.87
2019-04-23T12:02:54.317Z,27.50
2019-04-23T12:08:51.078Z,28.06
2019-04-23T12:11:52.921Z,28.15
2019-04-23T12:14:37.152Z,27.26
2019-04-23T12:17:07.906Z,27.45
2019-04-23T12:27:13.761Z,27.73
2019-04-23T12:32:44.696Z,27.94
2019-04-23T12:35:12.932Z,28.47
2019-04-23T12:40:32.431Z,29.10
2019-04-23T12:45:35.547Z,29.49
2019-04-23T12:48:26.248Z,29.84
2019-04-23T12:50:48.829Z,30.06
2019-04-23T13:00:51.549Z,30.78
2019-04-23T13:05:59.193Z,31.00
2019-04-23T13:08:44.271Z,31.11
2019-04-23T13:11:15.229Z,31.70
2019-04-23T13:16:25.478Z,32.29
2019-04-23T13:24:15.712Z,32.37
2019-04-23T13:26:51.867Z,32.17
2019-04-23T13:29:27.970Z,31.65
2019-04-23T13:32:00.839Z,31.52
2019-04-23T13:34:40.979Z,31.48
2019-04-23T13:37:11.193Z,31.10
2019-04-23T13:39:39.839Z,30.74
2019-04-23T13:42:22.860Z,30.74
2019-04-23T13:44:51.878Z,30.94
2019-04-23T13:47:28.177Z,30.80
2019-04-23T13:50:01.381Z,31.08
2019-04-23T13:53:02.664Z,30.97
2019-04-23T13:55:09.094Z,31.05
2019-04-23T13:57:59.332Z,31.12
2019-04-23T14:00:09.545Z,31.07
2019-04-23T14:02:43.900Z,31.06
2019-04-23T14:05:35.605Z,31.10
2019-04-23T14:08:13.264Z,31.16
2019-04-23T14:10:40.137Z,30.89
2019-04-23T14:20:55.488Z,30.57
2019-04-23T14:26:21.997Z,30.01
2019-04-23T14:28:41.772Z,29.96
2019-04-23T14:31:10.537Z,29.29
2019-04-23T14:33:58.471Z,29.60
2019-04-23T14:36:27.780Z,29.13
2019-04-23T14:38:57.434Z,28.95
2019-04-23T14:41:44.448Z,28.80
2019-04-23T14:44:10.388Z,28.97
2019-04-23T14:49:22.074Z,29.41
2019-04-23T14:57:09.923Z,29.10
2019-04-23T14:59:29.031Z,28.83
2019-04-23T15:02:12.519Z,28.41
2019-04-23T15:07:22.924Z,28.34
2019-04-23T15:09:57.638Z,28.61
2019-04-23T15:15:06.227Z,28.89
2019-04-23T15:17:34.666Z,29.27
2019-04-23T15:20:22.974Z,29.33
2019-04-23T15:27:15.902Z,29.09
2019-04-23T15:30:57.527Z,29.77
2019-04-23T15:33:35.044Z,30.09
2019-04-23T15:36:12.910Z,30.60
2019-04-23T15:39:12.305Z,30.88
2019-04-23T15:41:07.431Z,31.27
2019-04-23T15:43:39.295Z,31.51
2019-04-23T15:46:21.569Z,31.46
2019-04-23T15:48:53.989Z,31.23
2019-04-23T15:51:30.939Z,31.60
2019-04-23T15:53:56.404Z,31.87
2019-04-23T15:56:38.474Z,31.91
2019-04-23T15:59:14.081Z,32.10
2019-04-23T16:01:35.118Z,32.40
2019-04-23T16:03:43.439Z,32.43
2019-04-23T16:06:20.987Z,32.42
2019-04-23T16:14:41.150Z,32.75
2019-04-23T16:17:04.888Z,32.86
2019-04-23T16:19:45.916Z,33.04
2019-04-23T16:22:10.776Z,33.01
2019-04-23T16:24:59.856Z,33.06
2019-04-23T16:27:21.571Z,33.21
2019-04-23T16:32:57.770Z,33.70
2019-04-23T16:38:10.290Z,33.78
2019-04-23T16:40:36.283Z,33.93
2019-04-23T16:43:10.149Z,34.17
2019-04-23T16:45:40.985Z,34.35
2019-04-23T16:48:23.864Z,34.60
2019-04-23T16:51:06.705Z,35.31
2019-04-23T16:53:21.525Z,36.43
2019-04-23T16:55:55.056Z,39.36
2019-04-23T16:58:34.614Z,40.89
2019-04-23T17:06:10.100Z,41.22
2019-04-23T17:08:52.139Z,42.06
2019-04-23T17:11:19.092Z,40.82
2019-04-23T17:14:09.183Z,40.55
2019-04-23T17:16:28.620Z,40.70
2019-04-23T17:19:01.871Z,40.94
2019-04-23T17:21:32.517Z,39.88
2019-04-23T17:24:16.860Z,39.56
2019-04-23T17:26:37.368Z,39.54
2019-04-23T17:29:16.127Z,38.78
2019-04-23T17:32:00.570Z,38.78
2019-04-23T17:34:32.557Z,38.15
2019-04-23T17:37:17.869Z,38.20
2019-04-23T17:40:06.741Z,37.83
2019-04-23T17:42:45.528Z,37.81
2019-04-23T17:45:30.875Z,37.61
2019-04-23T17:48:21.981Z,37.12
2019-04-23T17:53:25.359Z,37.26
2019-04-23T17:58:35.412Z,37.22
2019-04-23T18:09:05.966Z,37.30
2019-04-23T18:11:30.020Z,37.54
2019-04-23T18:14:03.829Z,37.93
2019-04-23T18:22:07.399Z,38.52
2019-04-23T18:24:57.897Z,38.72
2019-04-23T18:27:33.442Z,38.89
2019-04-23T18:33:33.813Z,39.14
2019-04-23T18:35:33.022Z,39.29
2019-04-23T18:40:59.244Z,39.71
2019-04-23T18:53:49.388Z,40.16
2019-04-23T19:07:32.218Z,40.51
2019-04-23T19:10:29.205Z,40.33
2019-04-23T19:13:07.318Z,40.19
2019-04-23T19:17:50.168Z,40.04
2019-04-23T19:20:49.749Z,40.05
2019-04-23T19:23:09.518Z,39.78
2019-04-23T19:25:49.870Z,39.84
2019-04-23T19:28:30.755Z,39.49
2019-04-23T19:33:35.314Z,39.47
2019-04-23T19:38:36.424Z,39.38
2019-04-23T19:41:10.827Z,39.31
2019-04-23T19:43:54.399Z,39.16
2019-04-23T19:48:57.887Z,39.19
2019-04-23T19:54:11.017Z,38.79
2019-04-23T19:56:37.719Z,38.50
2019-04-23T19:59:01.925Z,38.70
2019-04-23T20:01:49.810Z,38.50
2019-04-23T20:04:15.070Z,38.44
2019-04-23T20:17:23.284Z,38.11
2019-04-23T20:25:04.172Z,38.00
2019-04-23T20:35:35.600Z,37.70
2019-04-23T20:40:50.847Z,37.61
2019-04-23T20:43:18.963Z,37.60
2019-04-23T20:45:56.642Z,37.62
2019-04-23T20:48:30.848Z,37.70
2019-04-23T20:50:56.242Z,37.59
2019-04-23T20:53:31.347Z,37.42
2019-04-23T20:56:07.386Z,37.49
2019-04-23T20:58:54.921Z,37.44
2019-04-23T21:01:33.839Z,37.45
2019-04-23T21:04:02.151Z,37.39
2019-04-23T21:06:37.456Z,37.59
2019-04-23T21:11:53.111Z,37.75
2019-04-23T21:14:33.580Z,37.92
2019-04-23T21:16:48.695Z,37.99
2019-04-23T21:19:30.740Z,38.17
2019-04-23T21:22:13.940Z,38.14
2019-04-23T21:24:46.248Z,38.25
2019-04-23T21:27:38.536Z,38.36
2019-04-23T21:32:45.303Z,38.66
2019-04-23T21:35:16.838Z,38.93
2019-04-23T21:38:05.012Z,38.91
2019-04-23T21:43:20.734Z,39.20
2019-04-23T21:46:02.483Z,39.23
2019-04-23T21:48:28.640Z,39.54
2019-04-23T21:51:28.620Z,39.85
2019-04-23T21:53:33.397Z,39.92
2019-04-23T21:56:08.507Z,40.00
2019-04-23T22:01:36.959Z,40.23
2019-04-23T22:09:10.333Z,40.50
2019-04-23T22:16:53.919Z,40.58
2019-04-23T22:21:52.570Z,40.64
2019-04-23T22:24:21.216Z,40.62
2019-04-23T22:26:54.913Z,40.62
2019-04-23T22:31:53.786Z,40.82
2019-04-23T22:34:46.915Z,40.89
2019-04-23T22:39:54.169Z,41.04
2019-04-23T22:42:45.154Z,41.17
2019-04-23T22:45:38.091Z,41.03
2019-04-23T22:47:33.668Z,41.19
2019-04-23T22:52:43.691Z,41.05
2019-04-23T22:55:23.402Z,41.05
2019-04-23T22:58:01.883Z,40.99
2019-04-23T23:03:11.586Z,40.92
2019-04-23T23:06:03.111Z,40.91
2019-04-23T23:08:23.992Z,41.16
2019-04-23T23:11:02.558Z,40.94
2019-04-23T23:13:46.550Z,40.87
2019-04-23T23:18:39.067Z,40.92
2019-04-23T23:21:13.414Z,41.02
2019-04-23T23:23:49.776Z,40.97
2019-04-23T23:26:22.062Z,40.99
2019-04-23T23:28:59.435Z,41.16
2019-04-23T23:31:29.935Z,41.22
2019-04-23T23:34:02.362Z,41.33
2019-04-23T23:36:38.771Z,41.25
2019-04-23T23:44:35.129Z,41.42
2019-04-23T23:46:56.291Z,41.49
2019-04-23T23:49:27.811Z,41.40
2019-04-23T23:51:57.709Z,41.78
2019-04-23T23:54:31.106Z,41.76
2019-04-23T23:57:13.897Z,41.78
